createdAt,value
2017-07-03T00:00:59.928Z,958.46
2017-07-03T00:01:59.921Z,958.48
2017-07-03T00:02:59.914Z,958.55
2017-07-03T00:03:59.924Z,958.51
2017-07-03T00:04:59.928Z,958.53
2017-07-03T00:05:59.898Z,958.53
2017-07-03T00:06:59.894Z,958.55
2017-07-03T00:07:59.889Z,958.53
2017-07-03T00:08:59.891Z,958.5
2017-07-03T00:09:59.877Z,958.5
2017-07-03T00:10:59.872Z,958.49
2017-07-03T00:11:59.870Z,958.44
2017-07-03T00:12:59.860Z,958.47
2017-07-03T00:13:59.855Z,958.45
2017-07-03T00:14:59.848Z,958.48
2017-07-03T00:15:59.845Z,958.51
2017-07-03T00:16:59.836Z,958.5
2017-07-03T00:17:59.832Z,958.48
2017-07-03T00:18:59.828Z,958.49
2017-07-03T00:19:59.822Z,958.53
2017-07-03T00:20:59.817Z,958.49
2017-07-03T00:21:59.810Z,958.5
2017-07-03T00:22:59.805Z,958.5
2017-07-03T00:23:59.801Z,958.5
2017-07-03T00:24:59.794Z,958.52
2017-07-03T00:25:59.789Z,958.55
2017-07-03T00:26:59.783Z,958.57
2017-07-03T00:27:59.778Z,958.55
2017-07-03T00:28:59.772Z,958.56
2017-07-03T00:29:59.768Z,958.56
2017-07-03T00:30:59.782Z,958.57
2017-07-03T00:31:59.755Z,958.52
2017-07-03T00:32:59.749Z,958.53
2017-07-03T00:33:59.744Z,958.54
2017-07-03T00:34:59.741Z,958.53
2017-07-03T00:35:59.734Z,958.53
2017-07-03T00:36:59.879Z,958.56
2017-07-03T00:37:59.722Z,958.53
2017-07-03T00:38:59.717Z,958.52
2017-07-03T00:39:59.711Z,958.51
2017-07-03T00:40:59.706Z,958.52
2017-07-03T00:41:59.701Z,958.52
2017-07-03T00:42:59.694Z,958.5
2017-07-03T00:43:59.689Z,958.49
2017-07-03T00:44:59.684Z,958.47
2017-07-03T00:45:59.679Z,958.51
2017-07-03T00:46:59.674Z,958.52
2017-07-03T00:47:59.670Z,958.59
2017-07-03T00:48:59.663Z,958.58
2017-07-03T00:49:59.656Z,958.69
2017-07-03T00:50:59.652Z,958.68
2017-07-03T00:51:59.647Z,958.64
2017-07-03T00:52:59.646Z,958.66
2017-07-03T00:53:59.635Z,958.67
2017-07-03T00:54:59.629Z,958.65
2017-07-03T00:55:59.624Z,958.65
2017-07-03T00:56:59.617Z,958.66
2017-07-03T00:57:59.628Z,958.68
2017-07-03T00:58:59.606Z,958.65
2017-07-03T00:59:59.602Z,958.63
2017-07-03T01:00:59.594Z,958.6
2017-07-03T01:01:59.589Z,958.64
2017-07-03T01:02:59.585Z,958.6
2017-07-03T01:03:59.579Z,958.62
2017-07-03T01:04:59.583Z,958.56
2017-07-03T01:05:59.584Z,958.55
2017-07-03T01:06:59.580Z,958.51
2017-07-03T01:07:59.554Z,958.53
2017-07-03T01:08:59.550Z,958.61
2017-07-03T01:09:59.545Z,958.57
2017-07-03T01:10:59.538Z,958.58
2017-07-03T01:11:59.533Z,958.61
2017-07-03T01:12:59.526Z,958.59
2017-07-03T01:13:59.522Z,958.6
2017-07-03T01:14:59.525Z,958.63
2017-07-03T01:15:59.510Z,958.62
2017-07-03T01:16:59.504Z,958.58
2017-07-03T01:17:59.500Z,958.63
2017-07-03T01:18:59.493Z,958.64
2017-07-03T01:19:59.488Z,958.66
2017-07-03T01:20:59.482Z,958.66
2017-07-03T01:21:59.477Z,958.67
2017-07-03T01:22:59.472Z,958.65
2017-07-03T01:23:59.466Z,958.69
2017-07-03T01:24:59.459Z,958.66
2017-07-03T01:25:59.453Z,958.66
2017-07-03T01:26:59.448Z,958.64
2017-07-03T01:27:59.441Z,958.67
2017-07-03T01:28:59.437Z,958.69
2017-07-03T01:29:59.429Z,958.67
2017-07-03T01:30:59.425Z,958.7
2017-07-03T01:31:59.434Z,958.76
2017-07-03T01:32:59.413Z,958.72
2017-07-03T01:33:59.406Z,958.73
2017-07-03T01:34:59.400Z,958.74
2017-07-03T01:35:59.396Z,958.8
2017-07-03T01:36:59.391Z,958.78
2017-07-03T01:37:59.384Z,958.81
2017-07-03T01:38:59.378Z,958.81
2017-07-03T01:39:59.374Z,958.82
2017-07-03T01:40:59.366Z,958.85
2017-07-03T01:41:59.385Z,958.79
2017-07-03T01:42:59.357Z,958.75
2017-07-03T01:43:59.351Z,958.79
2017-07-03T01:44:59.343Z,958.8
2017-07-03T01:45:59.339Z,958.83
2017-07-03T01:46:59.335Z,958.82
2017-07-03T01:47:59.330Z,958.82
2017-07-03T01:48:59.320Z,958.81
2017-07-03T01:49:59.315Z,958.82
2017-07-03T01:50:59.309Z,958.82
2017-07-03T01:51:59.303Z,958.87
2017-07-03T01:52:59.298Z,958.84
2017-07-03T01:53:59.292Z,958.86
2017-07-03T01:54:59.289Z,958.88
2017-07-03T01:55:59.280Z,958.86
2017-07-03T01:56:59.274Z,958.88
2017-07-03T01:57:59.275Z,958.89
2017-07-03T01:58:59.300Z,958.88
2017-07-03T01:59:59.258Z,958.84
2017-07-03T02:00:59.252Z,958.85
2017-07-03T02:01:59.245Z,958.89
2017-07-03T02:02:59.252Z,958.9
2017-07-03T02:03:59.234Z,958.93
2017-07-03T02:04:59.228Z,958.94
2017-07-03T02:05:59.222Z,958.9
2017-07-03T02:06:59.215Z,958.91
2017-07-03T02:07:59.211Z,958.89
2017-07-03T02:08:59.204Z,958.91
2017-07-03T02:09:59.201Z,958.93
2017-07-03T02:10:59.191Z,958.92
2017-07-03T02:11:59.199Z,958.93
2017-07-03T02:12:59.182Z,958.94
2017-07-03T02:13:59.174Z,958.96
2017-07-03T02:14:59.168Z,958.92
2017-07-03T02:15:59.162Z,958.96
2017-07-03T02:16:59.157Z,958.97
2017-07-03T02:17:59.150Z,958.94
2017-07-03T02:18:59.144Z,958.93
2017-07-03T02:19:59.138Z,958.93
2017-07-03T02:20:59.133Z,958.96
2017-07-03T02:21:59.128Z,958.96
2017-07-03T02:22:59.124Z,958.91
2017-07-03T02:23:59.116Z,958.94
2017-07-03T02:24:59.110Z,958.94
2017-07-03T02:25:59.105Z,958.92
2017-07-03T02:26:59.099Z,958.9
2017-07-03T02:27:59.128Z,958.93
2017-07-03T02:28:59.086Z,958.96
2017-07-03T02:29:59.082Z,959.03
2017-07-03T02:30:59.075Z,959.05
2017-07-03T02:31:59.068Z,959.01
2017-07-03T02:32:59.064Z,959.08
2017-07-03T02:33:59.058Z,959.06
2017-07-03T02:34:59.051Z,959.06
2017-07-03T02:35:59.044Z,959.08
2017-07-03T02:36:59.048Z,959.07
2017-07-03T02:37:59.049Z,959.09
2017-07-03T02:38:59.028Z,959.07
2017-07-03T02:39:59.024Z,959.07
2017-07-03T02:40:59.015Z,959.15
2017-07-03T02:41:59.012Z,959.15
2017-07-03T02:42:59.004Z,959.1
2017-07-03T02:43:58.997Z,959.11
2017-07-03T02:44:58.990Z,959.09
2017-07-03T02:45:58.995Z,959.06
2017-07-03T02:46:58.979Z,959.04
2017-07-03T02:47:58.973Z,959.09
2017-07-03T02:48:58.967Z,959.1
2017-07-03T02:49:58.983Z,959.09
2017-07-03T02:50:58.954Z,959.1
2017-07-03T02:51:58.949Z,959.09
2017-07-03T02:52:58.993Z,959.07
2017-07-03T02:53:58.941Z,959.1
2017-07-03T02:54:58.931Z,959.12
2017-07-03T02:55:58.925Z,959.14
2017-07-03T02:56:58.926Z,959.11
2017-07-03T02:57:58.913Z,959.13
2017-07-03T02:58:58.906Z,959.13
2017-07-03T02:59:58.900Z,959.16
2017-07-03T03:00:58.895Z,959.15
2017-07-03T03:01:58.887Z,959.15
2017-07-03T03:02:58.883Z,959.18
2017-07-03T03:03:58.876Z,959.22
2017-07-03T03:04:58.872Z,959.22
2017-07-03T03:05:58.863Z,959.25
2017-07-03T03:06:58.857Z,959.31
2017-07-03T03:07:58.851Z,959.36
2017-07-03T03:08:58.844Z,959.31
2017-07-03T03:09:58.838Z,959.32
2017-07-03T03:10:58.832Z,959.31
2017-07-03T03:11:58.828Z,959.31
2017-07-03T03:12:58.824Z,959.31
2017-07-03T03:13:58.825Z,959.35
2017-07-03T03:14:58.813Z,959.33
2017-07-03T03:15:58.800Z,959.32
2017-07-03T03:16:58.795Z,959.34
2017-07-03T03:17:58.789Z,959.32
2017-07-03T03:18:58.783Z,959.34
2017-07-03T03:19:58.776Z,959.37
2017-07-03T03:20:58.770Z,959.42
2017-07-03T03:21:58.771Z,959.39
2017-07-03T03:22:58.781Z,959.4
2017-07-03T03:23:58.750Z,959.44
2017-07-03T03:24:58.745Z,959.48
2017-07-03T03:25:58.739Z,959.42
2017-07-03T03:26:58.732Z,959.48
2017-07-03T03:27:58.727Z,959.45
2017-07-03T03:28:58.722Z,959.44
2017-07-03T03:29:58.715Z,959.53
2017-07-03T03:30:58.707Z,959.49
2017-07-03T03:31:58.703Z,959.48
2017-07-03T03:32:58.697Z,959.48
2017-07-03T03:33:58.691Z,959.5
2017-07-03T03:34:58.684Z,959.51
2017-07-03T03:35:58.684Z,959.51
2017-07-03T03:36:58.671Z,959.47
2017-07-03T03:37:58.664Z,959.45
2017-07-03T03:38:58.658Z,959.47
2017-07-03T03:39:58.654Z,959.45
2017-07-03T03:40:58.647Z,959.48
2017-07-03T03:41:58.639Z,959.48
2017-07-03T03:42:58.634Z,959.5
2017-07-03T03:43:58.627Z,959.46
2017-07-03T03:44:58.638Z,959.45
2017-07-03T03:45:58.617Z,959.47
2017-07-03T03:46:58.609Z,959.47
2017-07-03T03:47:58.617Z,959.5
2017-07-03T03:48:58.601Z,959.51
2017-07-03T03:49:58.591Z,959.53
2017-07-03T03:50:58.585Z,959.55
2017-07-03T03:51:58.579Z,959.55
2017-07-03T03:52:58.573Z,959.54
2017-07-03T03:53:58.589Z,959.57
2017-07-03T03:54:58.561Z,959.55
2017-07-03T03:55:58.556Z,959.53
2017-07-03T03:56:58.548Z,959.5
2017-07-03T03:57:58.547Z,959.53
2017-07-03T03:58:58.536Z,959.52
2017-07-03T03:59:58.531Z,959.49
2017-07-03T04:00:58.525Z,959.54
2017-07-03T04:01:58.519Z,959.53
2017-07-03T04:02:58.513Z,959.56
2017-07-03T04:03:58.507Z,959.56
2017-07-03T04:04:58.501Z,959.61
2017-07-03T04:05:58.494Z,959.61
2017-07-03T04:06:58.489Z,959.66
2017-07-03T04:07:58.482Z,959.63
2017-07-03T04:08:58.479Z,959.67
2017-07-03T04:09:58.471Z,959.7
2017-07-03T04:10:58.466Z,959.69
2017-07-03T04:11:58.461Z,959.74
2017-07-03T04:12:58.456Z,959.74
2017-07-03T04:13:58.451Z,959.72
2017-07-03T04:14:58.443Z,959.77
2017-07-03T04:15:58.437Z,959.74
2017-07-03T04:16:58.433Z,959.73
2017-07-03T04:17:58.425Z,959.75
2017-07-03T04:18:58.421Z,959.77
2017-07-03T04:19:58.415Z,959.76
2017-07-03T04:20:58.409Z,959.75
2017-07-03T04:21:58.404Z,959.74
2017-07-03T04:22:58.415Z,959.77
2017-07-03T04:23:58.392Z,959.81
2017-07-03T04:24:58.386Z,959.79
2017-07-03T04:25:58.382Z,959.75
2017-07-03T04:26:58.376Z,959.78
2017-07-03T04:27:58.370Z,959.75
2017-07-03T04:28:58.365Z,959.81
2017-07-03T04:29:58.359Z,959.78
2017-07-03T04:30:58.355Z,959.84
2017-07-03T04:31:58.347Z,959.79
2017-07-03T04:32:58.384Z,959.84
2017-07-03T04:33:58.341Z,959.79
2017-07-03T04:34:58.331Z,959.76
2017-07-03T04:35:58.329Z,959.77
2017-07-03T04:36:58.321Z,959.75
2017-07-03T04:37:58.317Z,959.8
2017-07-03T04:38:58.309Z,959.81
2017-07-03T04:39:58.303Z,959.8
2017-07-03T04:40:58.297Z,959.79
2017-07-03T04:41:58.294Z,959.81
2017-07-03T04:42:58.287Z,959.81
2017-07-03T04:43:58.281Z,959.82
2017-07-03T04:44:58.276Z,959.74
2017-07-03T04:45:58.271Z,959.78
2017-07-03T04:46:58.266Z,959.79
2017-07-03T04:47:58.268Z,959.81
2017-07-03T04:48:58.255Z,959.76
2017-07-03T04:49:58.252Z,959.78
2017-07-03T04:50:58.244Z,959.77
2017-07-03T04:51:58.240Z,959.81
2017-07-03T04:52:58.235Z,959.81
2017-07-03T04:53:58.229Z,959.8
2017-07-03T04:54:58.241Z,959.8
2017-07-03T04:55:58.221Z,959.83
2017-07-03T04:56:58.216Z,959.83
2017-07-03T04:57:58.211Z,959.84
2017-07-03T04:58:58.206Z,959.86
2017-07-03T04:59:58.216Z,959.82
2017-07-03T05:00:58.196Z,959.84
2017-07-03T05:01:58.191Z,959.83
2017-07-03T05:02:58.186Z,959.87
2017-07-03T05:03:58.184Z,959.82
2017-07-03T05:04:58.179Z,959.84
2017-07-03T05:05:58.173Z,959.85
2017-07-03T05:06:58.168Z,959.87
2017-07-03T05:07:58.165Z,959.87
2017-07-03T05:08:58.180Z,959.82
2017-07-03T05:09:58.155Z,959.81
2017-07-03T05:10:58.149Z,959.8
2017-07-03T05:11:58.145Z,959.86
2017-07-03T05:12:58.140Z,959.89
2017-07-03T05:13:58.136Z,959.89
2017-07-03T05:14:58.134Z,959.87
2017-07-03T05:15:58.129Z,959.87
2017-07-03T05:16:58.127Z,959.85
2017-07-03T05:17:58.117Z,959.84
2017-07-03T05:18:58.114Z,959.81
2017-07-03T05:19:58.109Z,959.84
2017-07-03T05:20:58.104Z,959.8
2017-07-03T05:21:58.101Z,959.81
2017-07-03T05:22:58.094Z,959.86
2017-07-03T05:23:58.098Z,959.82
2017-07-03T05:24:58.086Z,959.86
2017-07-03T05:25:58.081Z,959.86
2017-07-03T05:26:58.077Z,959.87
2017-07-03T05:27:58.071Z,959.88
2017-07-03T05:28:58.067Z,959.89
2017-07-03T05:29:58.065Z,959.89
2017-07-03T05:30:58.061Z,959.89
2017-07-03T05:31:58.056Z,959.91
2017-07-03T05:32:58.054Z,959.91
2017-07-03T05:33:58.049Z,959.95
2017-07-03T05:34:58.043Z,959.95
2017-07-03T05:35:58.038Z,959.93
2017-07-03T05:36:58.034Z,959.96
2017-07-03T05:37:58.030Z,959.96
2017-07-03T05:38:58.026Z,959.97
2017-07-03T05:39:58.023Z,960
2017-07-03T05:40:58.020Z,960.01
2017-07-03T05:41:58.014Z,959.98
2017-07-03T05:42:58.012Z,960.02
2017-07-03T05:43:58.006Z,960
2017-07-03T05:44:58.003Z,959.99
2017-07-03T05:45:57.998Z,959.99
2017-07-03T05:46:57.996Z,959.98
2017-07-03T05:47:57.993Z,959.96
2017-07-03T05:48:57.989Z,960.03
2017-07-03T05:49:57.984Z,960.03
2017-07-03T05:50:57.981Z,960.01
2017-07-03T05:51:57.977Z,960.04
2017-07-03T05:52:57.972Z,960.03
2017-07-03T05:53:57.969Z,960.06
2017-07-03T05:54:57.966Z,960.06
2017-07-03T05:55:57.963Z,960.05
2017-07-03T05:56:57.958Z,960.05
2017-07-03T05:57:57.955Z,960.1
2017-07-03T05:58:57.951Z,960.06
2017-07-03T05:59:57.947Z,960.05
2017-07-03T06:00:57.943Z,960.09
2017-07-03T06:01:57.938Z,960.05
2017-07-03T06:02:57.934Z,960.03
2017-07-03T06:03:57.930Z,960.05
2017-07-03T06:04:57.928Z,960.03
2017-07-03T06:05:57.924Z,960.04
2017-07-03T06:06:57.919Z,960.06
2017-07-03T06:07:57.914Z,960.09
2017-07-03T06:08:57.911Z,960.07
2017-07-03T06:09:57.907Z,960.03
2017-07-03T06:10:57.908Z,960.03
2017-07-03T06:11:57.901Z,960.05
2017-07-03T06:12:57.910Z,960.02
2017-07-03T06:13:57.893Z,960.02
2017-07-03T06:14:57.888Z,960.07
2017-07-03T06:15:57.884Z,960.05
2017-07-03T06:16:57.881Z,960.07
2017-07-03T06:17:57.879Z,960.12
2017-07-03T06:18:57.877Z,960.05
2017-07-03T06:19:57.869Z,960.08
2017-07-03T06:20:57.865Z,960.1
2017-07-03T06:21:57.863Z,960.11
2017-07-03T06:22:57.858Z,960.1
2017-07-03T06:23:57.854Z,960.11
2017-07-03T06:24:57.849Z,960.13
2017-07-03T06:25:57.845Z,960.07
2017-07-03T06:26:57.841Z,960.09
2017-07-03T06:27:57.840Z,960.09
2017-07-03T06:28:57.835Z,960.12
2017-07-03T06:29:57.832Z,960.09
2017-07-03T06:30:57.828Z,960.1
2017-07-03T06:31:57.824Z,960.1
2017-07-03T06:32:57.819Z,960.1
2017-07-03T06:33:57.815Z,960.12
2017-07-03T06:34:57.815Z,960.15
2017-07-03T06:35:57.812Z,960.18
2017-07-03T06:36:57.805Z,960.16
2017-07-03T06:37:57.800Z,960.16
2017-07-03T06:38:57.800Z,960.14
2017-07-03T06:39:57.795Z,960.15
2017-07-03T06:40:57.791Z,960.16
2017-07-03T06:41:57.789Z,960.13
2017-07-03T06:42:57.789Z,960.14
2017-07-03T06:43:57.782Z,960.14
2017-07-03T06:44:57.831Z,960.13
2017-07-03T06:45:57.777Z,960.1
2017-07-03T06:46:57.774Z,960.11
2017-07-03T06:47:57.771Z,960.07
2017-07-03T06:48:57.768Z,960.1
2017-07-03T06:49:57.766Z,960.1
2017-07-03T06:50:57.765Z,960.14
2017-07-03T06:51:57.761Z,960.14
2017-07-03T06:52:57.761Z,960.17
2017-07-03T06:53:57.755Z,960.15
2017-07-03T06:54:57.753Z,960.16
2017-07-03T06:55:57.800Z,960.15
2017-07-03T06:56:57.746Z,960.15
2017-07-03T06:57:57.746Z,960.16
2017-07-03T06:58:57.739Z,960.14
2017-07-03T06:59:57.739Z,960.14
2017-07-03T07:00:57.738Z,960.14
2017-07-03T07:01:57.733Z,960.28
2017-07-03T07:02:57.729Z,960.25
2017-07-03T07:03:57.725Z,960.13
2017-07-03T07:04:57.724Z,960.15
2017-07-03T07:05:57.721Z,960.12
2017-07-03T07:06:57.719Z,960.15
2017-07-03T07:07:57.718Z,960.26
2017-07-03T07:08:57.715Z,960.25
2017-07-03T07:09:57.711Z,960.24
2017-07-03T07:10:57.710Z,960.2
2017-07-03T07:11:57.710Z,960.19
2017-07-03T07:12:57.710Z,960.23
2017-07-03T07:13:57.705Z,960.18
2017-07-03T07:14:57.706Z,960.17
2017-07-03T07:15:57.753Z,960.17
2017-07-03T07:16:57.704Z,960.14
2017-07-03T07:17:57.705Z,960.02
2017-07-03T07:18:57.705Z,960.04
2017-07-03T07:19:57.706Z,960.02
2017-07-03T07:20:57.707Z,960.1
2017-07-03T07:21:57.707Z,960.04
2017-07-03T07:22:57.709Z,960.07
2017-07-03T07:23:57.714Z,960.07
2017-07-03T07:24:57.711Z,960.09
2017-07-03T07:25:57.710Z,960.39
2017-07-03T07:26:57.713Z,960.37
2017-07-03T07:27:57.712Z,960.35
2017-07-03T07:28:57.712Z,960.33
2017-07-03T07:29:57.714Z,960.34
2017-07-03T07:30:57.715Z,960.37
2017-07-03T07:31:57.718Z,960.37
2017-07-03T07:32:57.717Z,960.39
2017-07-03T07:33:57.719Z,960.35
2017-07-03T07:34:57.737Z,960.39
2017-07-03T07:35:57.721Z,960.43
2017-07-03T07:36:57.726Z,960.45
2017-07-03T07:37:57.727Z,960.44
2017-07-03T07:38:57.731Z,960.29
2017-07-03T07:39:57.734Z,960.05
2017-07-03T07:40:57.737Z,960.12
2017-07-03T07:41:57.740Z,960.12
2017-07-03T07:42:57.744Z,960.12
2017-07-03T07:43:57.749Z,960.03
2017-07-03T07:44:57.751Z,960.05
2017-07-03T07:45:57.754Z,960.07
2017-07-03T07:46:57.758Z,960.07
2017-07-03T07:47:57.761Z,960.13
2017-07-03T07:48:57.765Z,960.2
2017-07-03T07:49:57.769Z,960.1
2017-07-03T07:50:57.772Z,960.12
2017-07-03T07:51:57.775Z,960.11
2017-07-03T07:52:57.778Z,960.12
2017-07-03T07:53:57.782Z,960.08
2017-07-03T07:54:57.782Z,960.09
2017-07-03T07:55:57.786Z,960.03
2017-07-03T07:56:57.787Z,960.04
2017-07-03T07:57:57.790Z,960.02
2017-07-03T07:58:57.792Z,959.98
2017-07-03T07:59:57.794Z,960
2017-07-03T08:00:57.794Z,959.98
2017-07-03T08:01:57.809Z,959.99
2017-07-03T08:02:57.799Z,960
2017-07-03T08:03:57.800Z,960
2017-07-03T08:04:57.801Z,960
2017-07-03T08:05:57.802Z,960.02
2017-07-03T08:06:57.803Z,959.99
2017-07-03T08:07:57.808Z,960.07
2017-07-03T08:08:57.803Z,960.07
2017-07-03T08:09:57.805Z,960.06
2017-07-03T08:10:57.805Z,960.07
2017-07-03T08:11:57.805Z,960
2017-07-03T08:12:57.805Z,960.02
2017-07-03T08:13:57.812Z,960
2017-07-03T08:14:57.806Z,959.95
2017-07-03T08:15:57.807Z,959.95
2017-07-03T08:16:57.808Z,959.95
2017-07-03T08:17:57.809Z,959.99
2017-07-03T08:18:57.809Z,959.95
2017-07-03T08:19:57.808Z,960.04
2017-07-03T08:20:57.809Z,959.97
2017-07-03T08:21:57.808Z,960.04
2017-07-03T08:22:57.828Z,960.02
2017-07-03T08:23:57.810Z,960.06
2017-07-03T08:24:57.809Z,960.08
2017-07-03T08:25:57.817Z,960.02
2017-07-03T08:26:57.811Z,960
2017-07-03T08:27:57.811Z,960.02
2017-07-03T08:28:57.811Z,960.08
2017-07-03T08:29:57.810Z,960.03
2017-07-03T08:30:57.810Z,960.05
2017-07-03T08:31:57.819Z,960.01
2017-07-03T08:32:57.814Z,960.03
2017-07-03T08:33:57.811Z,960.03
2017-07-03T08:34:57.810Z,960.1
2017-07-03T08:35:57.811Z,960.07
2017-07-03T08:36:57.811Z,960.1
2017-07-03T08:37:57.810Z,960.09
2017-07-03T08:38:57.827Z,960.08
2017-07-03T08:39:57.810Z,960.06
2017-07-03T08:40:57.808Z,960.1
2017-07-03T08:41:57.810Z,960.08
2017-07-03T08:42:57.811Z,960.14
2017-07-03T08:43:57.810Z,960.12
2017-07-03T08:44:57.809Z,960.14
2017-07-03T08:45:57.806Z,960.16
2017-07-03T08:46:57.806Z,960.13
2017-07-03T08:47:57.813Z,960.15
2017-07-03T08:48:57.804Z,960.1
2017-07-03T08:49:57.805Z,960.11
2017-07-03T08:50:57.804Z,960.14
2017-07-03T08:51:57.801Z,960.06
2017-07-03T08:52:57.806Z,960.1
2017-07-03T08:53:57.801Z,960.03
2017-07-03T08:54:57.801Z,960.02
2017-07-03T08:55:57.799Z,960.04
2017-07-03T08:56:57.800Z,960.04
2017-07-03T08:57:57.798Z,960.06
2017-07-03T08:58:57.799Z,960.08
2017-07-03T08:59:57.799Z,960.09
2017-07-03T09:00:57.796Z,960
2017-07-03T09:01:57.797Z,960.02
2017-07-03T09:02:57.796Z,959.99
2017-07-03T09:03:57.796Z,960.02
2017-07-03T09:04:57.795Z,960.02
2017-07-03T09:05:57.795Z,960.07
2017-07-03T09:06:57.793Z,960
2017-07-03T09:07:57.793Z,960.08
2017-07-03T09:08:57.803Z,960.06
2017-07-03T09:09:57.799Z,960.12
2017-07-03T09:10:57.790Z,960.12
2017-07-03T09:11:57.790Z,960.03
2017-07-03T09:12:57.790Z,960.05
2017-07-03T09:13:57.787Z,960.03
2017-07-03T09:14:57.786Z,960.02
2017-07-03T09:15:57.787Z,959.93
2017-07-03T09:16:57.787Z,959.93
2017-07-03T09:17:57.784Z,959.95
2017-07-03T09:18:57.783Z,959.95
2017-07-03T09:19:57.805Z,959.93
2017-07-03T09:20:57.780Z,959.91
2017-07-03T09:21:57.778Z,959.94
2017-07-03T09:22:57.778Z,959.96
2017-07-03T09:23:57.777Z,959.97
2017-07-03T09:24:57.775Z,959.93
2017-07-03T09:25:57.774Z,959.97
2017-07-03T09:26:57.774Z,959.95
2017-07-03T09:27:57.773Z,959.95
2017-07-03T09:28:57.774Z,960
2017-07-03T09:29:57.773Z,959.97
2017-07-03T09:30:57.769Z,959.93
2017-07-03T09:31:57.774Z,959.88
2017-07-03T09:32:57.769Z,959.84
2017-07-03T09:33:57.768Z,959.9
2017-07-03T09:34:57.769Z,959.84
2017-07-03T09:35:57.766Z,959.89
2017-07-03T09:36:57.766Z,959.83
2017-07-03T09:37:57.767Z,959.92
2017-07-03T09:38:57.767Z,959.88
2017-07-03T09:39:57.779Z,959.86
2017-07-03T09:40:57.767Z,959.83
2017-07-03T09:41:57.772Z,959.83
2017-07-03T09:42:57.769Z,959.77
2017-07-03T09:43:57.767Z,959.83
2017-07-03T09:44:57.767Z,959.89
2017-07-03T09:45:57.768Z,959.81
2017-07-03T09:46:57.768Z,959.84
2017-07-03T09:47:57.769Z,959.83
2017-07-03T09:48:57.768Z,959.79
2017-07-03T09:49:57.767Z,959.76
2017-07-03T09:50:57.768Z,959.79
2017-07-03T09:51:57.767Z,959.76
2017-07-03T09:52:57.768Z,959.79
2017-07-03T09:53:57.768Z,959.85
2017-07-03T09:54:57.768Z,959.74
2017-07-03T09:55:57.785Z,959.7
2017-07-03T09:56:57.768Z,959.77
2017-07-03T09:57:57.768Z,959.74
2017-07-03T09:58:57.767Z,959.78
2017-07-03T09:59:57.770Z,959.74
2017-07-03T10:00:57.766Z,959.79
2017-07-03T10:01:57.766Z,959.76
2017-07-03T10:02:57.769Z,959.87
2017-07-03T10:03:57.765Z,959.84
2017-07-03T10:04:57.766Z,959.84
2017-07-03T10:05:57.766Z,959.85
2017-07-03T10:06:57.770Z,959.78
2017-07-03T10:07:57.768Z,959.8
2017-07-03T10:08:57.765Z,959.76
2017-07-03T10:09:57.766Z,959.78
2017-07-03T10:10:57.772Z,959.78
2017-07-03T10:11:57.767Z,959.8
2017-07-03T10:12:57.774Z,959.83
2017-07-03T10:13:57.780Z,959.83
2017-07-03T10:14:57.785Z,959.8
2017-07-03T10:15:57.768Z,959.83
2017-07-03T10:16:57.768Z,959.79
2017-07-03T10:17:57.766Z,959.84
2017-07-03T10:18:57.767Z,959.72
2017-07-03T10:19:57.768Z,959.71
2017-07-03T10:20:57.768Z,959.79
2017-07-03T10:21:57.770Z,959.77
2017-07-03T10:22:57.769Z,959.66
2017-07-03T10:23:57.768Z,959.75
2017-07-03T10:24:57.770Z,959.7
2017-07-03T10:25:57.770Z,959.77
2017-07-03T10:26:57.769Z,959.72
2017-07-03T10:27:57.770Z,959.7
2017-07-03T10:28:57.769Z,959.71
2017-07-03T10:29:57.772Z,959.68
2017-07-03T10:30:57.770Z,959.68
2017-07-03T10:31:57.769Z,959.66
2017-07-03T10:32:57.770Z,959.63
2017-07-03T10:33:57.770Z,959.64
2017-07-03T10:34:57.770Z,959.68
2017-07-03T10:35:57.770Z,959.64
2017-07-03T10:36:57.772Z,959.59
2017-07-03T10:37:57.770Z,959.64
2017-07-03T10:38:57.769Z,959.65
2017-07-03T10:39:57.771Z,959.63
2017-07-03T10:40:57.771Z,959.61
2017-07-03T10:41:57.771Z,959.66
2017-07-03T10:42:57.771Z,959.57
2017-07-03T10:43:57.772Z,959.53
2017-07-03T10:44:57.773Z,959.56
2017-07-03T10:45:57.772Z,959.53
2017-07-03T10:46:57.772Z,959.52
2017-07-03T10:47:57.774Z,959.58
2017-07-03T10:48:57.788Z,959.59
2017-07-03T10:49:57.772Z,959.6
2017-07-03T10:50:57.773Z,959.53
2017-07-03T10:51:57.774Z,959.54
2017-07-03T10:52:57.774Z,959.56
2017-07-03T10:53:57.775Z,959.52
2017-07-03T10:54:57.773Z,959.54
2017-07-03T10:55:57.779Z,959.5
2017-07-03T10:56:57.774Z,959.51
2017-07-03T10:57:57.775Z,959.48
2017-07-03T10:58:57.792Z,959.45
2017-07-03T10:59:57.824Z,959.48
2017-07-03T11:00:57.775Z,959.53
2017-07-03T11:01:57.777Z,959.46
2017-07-03T11:02:57.776Z,959.52
2017-07-03T11:03:57.776Z,959.47
2017-07-03T11:04:57.776Z,959.53
2017-07-03T11:05:57.790Z,959.46
2017-07-03T11:06:57.777Z,959.5
2017-07-03T11:07:57.778Z,959.44
2017-07-03T11:08:57.778Z,959.5
2017-07-03T11:09:57.779Z,959.5
2017-07-03T11:10:57.779Z,959.53
2017-07-03T11:11:57.781Z,959.5
2017-07-03T11:12:57.782Z,959.48
2017-07-03T11:13:57.781Z,959.46
2017-07-03T11:14:57.782Z,959.4
2017-07-03T11:15:57.783Z,959.47
2017-07-03T11:16:57.784Z,959.37
2017-07-03T11:17:57.784Z,959.39
2017-07-03T11:18:57.784Z,959.41
2017-07-03T11:19:57.785Z,959.39
2017-07-03T11:20:57.785Z,959.39
2017-07-03T11:21:57.787Z,959.42
2017-07-03T11:22:57.786Z,959.4
2017-07-03T11:23:57.786Z,959.36
2017-07-03T11:24:57.787Z,959.36
2017-07-03T11:25:57.787Z,959.35
2017-07-03T11:26:57.790Z,959.37
2017-07-03T11:27:57.789Z,959.4
2017-07-03T11:28:57.791Z,959.43
2017-07-03T11:29:57.790Z,959.37
2017-07-03T11:30:57.790Z,959.43
2017-07-03T11:31:57.791Z,959.47
2017-07-03T11:32:57.841Z,959.42
2017-07-03T11:33:57.790Z,959.4
2017-07-03T11:34:57.793Z,959.43
2017-07-03T11:35:57.792Z,959.46
2017-07-03T11:36:57.792Z,959.42
2017-07-03T11:37:57.794Z,959.42
2017-07-03T11:38:57.793Z,959.43
2017-07-03T11:39:57.795Z,959.36
2017-07-03T11:40:57.794Z,959.42
2017-07-03T11:41:57.801Z,959.5
2017-07-03T11:42:57.817Z,959.48
2017-07-03T11:43:57.841Z,959.41
2017-07-03T11:44:57.795Z,959.4
2017-07-03T11:45:57.798Z,959.4
2017-07-03T11:46:57.799Z,959.37
2017-07-03T11:47:57.798Z,959.36
2017-07-03T11:48:57.801Z,959.34
2017-07-03T11:49:57.802Z,959.31
2017-07-03T11:50:57.801Z,959.34
2017-07-03T11:51:57.801Z,959.37
2017-07-03T11:52:57.805Z,959.37
2017-07-03T11:53:57.819Z,959.36
2017-07-03T11:54:57.803Z,959.39
2017-07-03T11:55:57.803Z,959.39
2017-07-03T11:56:57.805Z,959.36
2017-07-03T11:57:57.807Z,959.31
2017-07-03T11:58:57.806Z,959.33
2017-07-03T11:59:57.807Z,959.38
2017-07-03T12:00:57.805Z,959.36
2017-07-03T12:01:57.811Z,959.34
2017-07-03T12:02:57.828Z,959.27
2017-07-03T12:03:57.807Z,959.31
2017-07-03T12:04:57.811Z,959.26
2017-07-03T12:05:57.809Z,959.29
2017-07-03T12:06:57.810Z,959.33
2017-07-03T12:07:57.812Z,959.29
2017-07-03T12:08:57.812Z,959.26
2017-07-03T12:09:57.812Z,959.27
2017-07-03T12:10:57.812Z,959.29
2017-07-03T12:11:57.814Z,959.29
2017-07-03T12:12:57.813Z,959.3
2017-07-03T12:13:57.814Z,959.24
2017-07-03T12:14:57.814Z,959.2
2017-07-03T12:15:57.817Z,959.19
2017-07-03T12:16:57.815Z,959.21
2017-07-03T12:17:57.816Z,959.18
2017-07-03T12:18:57.832Z,959.17
2017-07-03T12:19:57.818Z,959.21
2017-07-03T12:20:57.817Z,959.21
2017-07-03T12:21:57.819Z,959.23
2017-07-03T12:22:57.818Z,959.23
2017-07-03T12:23:57.819Z,959.19
2017-07-03T12:24:57.819Z,959.2
2017-07-03T12:25:57.820Z,959.2
2017-07-03T12:26:57.820Z,959.23
2017-07-03T12:27:57.821Z,959.22
2017-07-03T12:28:57.822Z,959.19
2017-07-03T12:29:57.824Z,959.15
2017-07-03T12:30:57.824Z,959.12
2017-07-03T12:31:57.824Z,959.11